Sodak Park, South Dakota
Current Conditions -  °F | °C
As of 11:53 AM on Tuesday 21 Oct 2014 (Local Time) from KVVV Reporting Station
Clear Clear  
Wind Chill: 14°   Ceiling: Unl
Heat Index: 14°   Visibility: 10mi
Dew Point:   Wind: 15mph
Humidity: 55%   Direction: 130°SE
Pressure: 30.03"   Gusts: 23mph
Location:  45.4152°N, 96.8664°W
Report Text: KVVV 211653Z AUTO 13013G20KT 10SM CLR 14/05 A3003 RMK AO2
Loading
Personal Weather Stations






























Interactive Weather Map
Tropical Storm Tracking
New forecast layout! Learn more

10-Day Weather Forecast

Advertisements
Track Severe Weather on mobile